Time;durP1;ratioP1;P1;durP2;ratioP2;P2;SDS_P1;SDS_P2;PMS_P1;PMS_P2;Temp;Humidity;BMP_temperature;BMP_pressure;BME280_temperature;BME280_humidity;BME280_pressure;Samples;Min_cycle;Max_cycle;Signal;HPM_P1;HPM_P2
2022/06/27 00:01:12;;;;;;;7.97;6.07;;;18.50;99.90;;;;;;5034026;28;20206;-87
2022/06/27 00:03:37;;;;;;;13.27;6.60;;;18.50;99.90;;;;;;5035367;28;20309;-88
2022/06/27 00:06:03;;;;;;;8.90;6.50;;;18.30;99.90;;;;;;5037018;28;20198;-87
2022/06/27 00:08:29;;;;;;;7.60;6.43;;;18.50;99.90;;;;;;5034757;28;20166;-88
2022/06/27 00:10:54;;;;;;;11.13;6.00;;;18.50;99.90;;;;;;5034379;28;20174;-88
2022/06/27 00:13:20;;;;;;;7.93;5.83;;;18.40;99.90;;;;;;5033318;28;20850;-87
2022/06/27 00:15:46;;;;;;;8.70;6.50;;;18.40;99.90;;;;;;5033369;28;20174;-87
2022/06/27 00:18:12;;;;;;;9.67;6.37;;;18.30;99.90;;;;;;5033543;28;20182;-88
2022/06/27 00:20:37;;;;;;;10.17;5.70;;;18.30;99.90;;;;;;5032643;28;20737;-87
2022/06/27 00:23:03;;;;;;;11.10;6.07;;;18.30;99.90;;;;;;5033190;28;20194;-89
2022/06/27 00:25:29;;;;;;;8.70;5.67;;;18.10;99.90;;;;;;5033852;28;20193;-87
2022/06/27 00:27:54;;;;;;;9.90;5.77;;;18.20;99.90;;;;;;5033421;28;20174;-87
2022/06/27 00:30:20;;;;;;;7.83;6.23;;;18.30;99.90;;;;;;5033442;28;20177;-87
2022/06/27 00:32:48;;;;;;;13.20;6.20;;;18.20;99.90;;;;;;5033048;28;20248;-87
2022/06/27 00:35:13;;;;;;;8.13;5.67;;;18.10;99.90;;;;;;5033617;28;20178;-88
2022/06/27 00:37:39;;;;;;;8.83;6.73;;;18.30;99.90;;;;;;5033555;28;20653;-87
2022/06/27 00:40:06;;;;;;;8.63;6.60;;;18.20;99.90;;;;;;5033168;28;20553;-88
2022/06/27 00:42:32;;;;;;;10.20;5.93;;;18.20;99.90;;;;;;5032845;28;20225;-87
2022/06/27 00:44:58;;;;;;;9.23;6.33;;;18.20;99.90;;;;;;5033800;28;20224;-87
2022/06/27 00:47:24;;;;;;;8.20;5.97;;;18.20;99.90;;;;;;5032815;28;20170;-88
2022/06/27 00:49:49;;;;;;;9.17;6.70;;;18.30;99.90;;;;;;5032934;28;20166;-87
2022/06/27 00:52:15;;;;;;;8.83;6.50;;;18.30;99.90;;;;;;5032065;28;20677;-87
2022/06/27 00:54:43;;;;;;;10.40;6.67;;;18.30;99.90;;;;;;5033159;28;20216;-87
2022/06/27 00:57:13;;;;;;;12.33;6.73;;;18.20;99.90;;;;;;5032453;28;20185;-87
2022/06/27 00:59:39;;;;;;;7.87;6.43;;;18.30;99.90;;;;;;5032610;28;20531;-88
2022/06/27 01:02:05;;;;;;;9.33;6.10;;;18.30;99.90;;;;;;5031867;28;20202;-88
2022/06/27 01:04:31;;;;;;;8.60;6.53;;;18.20;99.90;;;;;;5032342;28;20262;-87
2022/06/27 01:06:58;;;;;;;9.00;6.53;;;18.20;99.90;;;;;;5032140;28;20182;-88
2022/06/27 01:09:24;;;;;;;12.00;6.47;;;18.40;99.90;;;;;;5032251;28;20190;-87
2022/06/27 01:11:51;;;;;;;9.73;6.23;;;18.30;99.90;;;;;;5032393;28;20178;-86
2022/06/27 01:14:18;;;;;;;11.20;7.13;;;18.40;99.90;;;;;;5032709;28;20173;-87
2022/06/27 01:16:44;;;;;;;12.17;7.23;;;18.20;99.90;;;;;;5032993;28;20196;-87
2022/06/27 01:19:13;;;;;;;12.10;7.30;;;18.30;99.90;;;;;;5032984;28;20538;-88
2022/06/27 01:21:44;;;;;;;10.80;7.87;;;18.10;99.90;;;;;;5032107;28;20209;-88
2022/06/27 01:24:10;;;;;;;11.10;7.47;;;18.00;99.90;;;;;;5033415;28;20213;-87
2022/06/27 01:26:36;;;;;;;11.57;7.60;;;17.90;99.90;;;;;;5032950;28;20661;-87
2022/06/27 01:29:02;;;;;;;10.40;8.10;;;17.90;99.90;;;;;;5032396;28;20669;-88
2022/06/27 01:31:28;;;;;;;13.57;8.00;;;18.00;99.90;;;;;;5032639;28;20181;-88
2022/06/27 01:33:54;;;;;;;15.33;8.50;;;17.90;99.90;;;;;;5032580;28;20198;-88
2022/06/27 01:39:04;;;;;;;11.27;8.30;;;17.90;99.90;;;;;;5033354;28;20737;-87
2022/06/27 01:41:30;;;;;;;12.43;8.43;;;17.90;99.90;;;;;;5031630;28;20677;-87
2022/06/27 01:43:56;;;;;;;9.97;8.10;;;18.00;99.90;;;;;;5032739;28;20218;-88
2022/06/27 01:46:22;;;;;;;10.33;7.97;;;17.90;99.90;;;;;;5031808;28;20201;-86
2022/06/27 01:48:48;;;;;;;12.43;8.50;;;18.00;99.90;;;;;;5031549;28;20257;-87
2022/06/27 01:51:14;;;;;;;12.90;7.93;;;17.90;99.90;;;;;;5033721;28;20648;-88
2022/06/27 01:53:40;;;;;;;15.13;8.67;;;18.10;99.90;;;;;;5038710;28;20562;-87
2022/06/27 01:56:06;;;;;;;15.77;8.73;;;18.10;99.90;;;;;;5038281;28;20233;-88
2022/06/27 01:58:33;;;;;;;15.23;8.30;;;18.10;99.90;;;;;;5038380;28;20174;-87
2022/06/27 02:00:58;;;;;;;12.13;8.80;;;17.90;99.90;;;;;;5038493;28;20221;-87
2022/06/27 02:03:24;;;;;;;13.37;8.90;;;18.10;99.90;;;;;;5038547;28;20593;-87
2022/06/27 02:05:54;;;;;;;13.73;9.70;;;17.90;99.90;;;;;;5039063;28;20159;-87
2022/06/27 02:08:21;;;;;;;16.80;10.03;;;18.10;99.90;;;;;;5039112;28;20260;-87
2022/06/27 02:10:47;;;;;;;16.70;9.47;;;17.70;99.90;;;;;;5038276;28;20234;-87
2022/06/27 02:13:13;;;;;;;14.20;9.77;;;17.90;99.90;;;;;;5038129;28;20212;-88
2022/06/27 02:16:12;;;;;;;12.90;9.90;;;17.80;99.90;;;;;;5038145;28;20201;-87
2022/06/27 02:18:40;;;;;;;13.77;9.90;;;17.90;99.90;;;;;;5039115;28;20177;-88
2022/06/27 02:21:20;;;;;;;17.57;9.70;;;17.80;99.90;;;;;;5035787;28;20210;-89
2022/06/27 02:23:48;;;;;;;17.60;10.20;;;17.80;99.90;;;;;;5036343;28;20190;-88
2022/06/27 02:26:15;;;;;;;15.23;9.90;;;17.80;99.90;;;;;;5037175;28;20236;-87
2022/06/27 02:28:42;;;;;;;17.40;10.63;;;17.80;99.90;;;;;;5036493;28;20174;-87
2022/06/27 02:31:09;;;;;;;14.40;11.33;;;17.90;99.90;;;;;;5036747;28;20315;-88
2022/06/27 02:33:45;;;;;;;19.33;10.57;;;17.80;99.90;;;;;;5036541;28;20197;-87
2022/06/27 02:36:19;;;;;;;14.40;11.20;;;17.80;99.90;;;;;;5034376;28;20256;-86
2022/06/27 02:38:50;;;;;;;15.37;11.63;;;17.80;99.90;;;;;;5033535;28;20571;-86
2022/06/27 02:41:17;;;;;;;17.30;11.77;;;17.70;99.90;;;;;;5032390;28;20198;-87
2022/06/27 02:43:46;;;;;;;17.13;11.93;;;17.70;99.90;;;;;;5033440;28;20682;-87
2022/06/27 02:46:12;;;;;;;20.30;13.13;;;17.70;99.90;;;;;;5033872;28;20178;-86
2022/06/27 02:48:39;;;;;;;18.70;12.37;;;17.60;99.90;;;;;;5033107;28;20166;-86
2022/06/27 02:51:09;;;;;;;19.27;12.33;;;17.50;99.90;;;;;;5033405;28;20177;-86
2022/06/27 02:53:42;;;;;;;20.13;12.73;;;17.60;99.90;;;;;;5034806;28;20194;-86
2022/06/27 02:56:10;;;;;;;20.47;12.93;;;17.60;99.90;;;;;;5034374;28;20167;-87
2022/06/27 02:58:47;;;;;;;19.57;12.77;;;17.50;99.90;;;;;;5033910;28;20177;-85
2022/06/27 03:01:15;;;;;;;20.00;12.93;;;17.60;99.90;;;;;;5034552;28;20205;-86
2022/06/27 03:03:42;;;;;;;18.87;12.97;;;17.40;99.90;;;;;;5034488;28;20194;-87
2022/06/27 03:06:08;;;;;;;22.47;13.40;;;17.40;99.90;;;;;;5034295;28;20221;-87
2022/06/27 03:08:44;;;;;;;17.33;12.90;;;17.50;99.90;;;;;;5033985;28;20646;-87
2022/06/27 03:11:12;;;;;;;20.03;13.00;;;17.50;99.90;;;;;;5034262;28;20166;-86
2022/06/27 03:13:37;;;;;;;22.10;13.23;;;17.50;99.90;;;;;;5034100;28;20205;-87
2022/06/27 03:16:04;;;;;;;17.63;13.17;;;17.50;99.90;;;;;;5033889;28;20170;-87
2022/06/27 03:18:30;;;;;;;17.87;13.27;;;17.40;99.90;;;;;;5034914;28;20269;-88
2022/06/27 03:20:55;;;;;;;19.93;12.60;;;17.40;99.90;;;;;;5033179;28;20229;-88
2022/06/27 03:23:22;;;;;;;19.80;13.47;;;17.40;99.90;;;;;;5034383;28;20190;-87
2022/06/27 03:25:48;;;;;;;19.80;13.50;;;17.40;99.90;;;;;;5033738;28;20174;-87
2022/06/27 03:28:14;;;;;;;21.00;13.93;;;17.20;99.90;;;;;;5035370;28;20270;-87
2022/06/27 03:30:40;;;;;;;18.13;12.33;;;17.20;99.90;;;;;;5037996;28;20206;-87
2022/06/27 03:33:06;;;;;;;18.10;13.47;;;17.30;99.90;;;;;;5037367;28;20682;-86
2022/06/27 03:35:31;;;;;;;17.73;13.27;;;17.20;99.90;;;;;;5037807;28;20315;-86
2022/06/27 03:37:57;;;;;;;22.10;13.80;;;17.20;99.90;;;;;;5038149;28;20200;-86
2022/06/27 03:40:23;;;;;;;18.67;12.77;;;17.30;99.90;;;;;;5038004;28;20178;-87
2022/06/27 03:42:49;;;;;;;22.73;14.30;;;17.30;99.90;;;;;;5037794;28;20650;-87
2022/06/27 03:45:14;;;;;;;18.90;13.30;;;17.20;99.90;;;;;;5038225;28;20166;-87
2022/06/27 03:47:50;;;;;;;18.97;12.83;;;17.30;99.90;;;;;;5037576;28;20174;-86
2022/06/27 03:50:20;;;;;;;17.70;13.40;;;17.20;99.90;;;;;;5037297;28;20174;-87
2022/06/27 03:52:46;;;;;;;21.57;13.00;;;17.30;99.90;;;;;;5036882;28;20197;-87
2022/06/27 03:55:12;;;;;;;20.17;13.03;;;17.20;99.90;;;;;;5038143;28;20174;-86
2022/06/27 03:57:46;;;;;;;18.23;13.10;;;17.10;99.90;;;;;;5036715;28;20227;-86
2022/06/27 04:00:12;;;;;;;20.83;12.57;;;17.20;99.90;;;;;;5037676;28;20158;-86
2022/06/27 04:02:38;;;;;;;19.17;12.80;;;17.20;99.90;;;;;;5037240;28;20247;-87
2022/06/27 04:05:04;;;;;;;19.00;13.40;;;17.30;99.90;;;;;;5037305;28;20173;-87
2022/06/27 04:07:30;;;;;;;19.93;13.80;;;17.30;99.90;;;;;;5036587;28;20204;-87
2022/06/27 04:09:57;;;;;;;22.20;13.50;;;17.30;99.90;;;;;;5037347;28;20197;-86
2022/06/27 04:12:24;;;;;;;21.70;13.87;;;17.20;99.90;;;;;;5037390;28;20209;-85
2022/06/27 04:14:50;;;;;;;23.27;14.13;;;17.30;99.90;;;;;;5037995;28;20776;-86
2022/06/27 04:17:16;;;;;;;21.27;13.87;;;17.30;99.90;;;;;;5038860;28;20174;-87
2022/06/27 04:19:42;;;;;;;21.13;15.03;;;17.40;99.90;;;;;;5036006;28;20681;-87
2022/06/27 04:22:11;;;;;;;25.27;15.33;;;17.30;99.90;;;;;;5036703;28;20781;-87
2022/06/27 04:24:37;;;;;;;23.20;14.17;;;17.30;99.90;;;;;;5038066;28;20657;-86
2022/06/27 04:27:03;;;;;;;22.00;14.33;;;17.30;99.90;;;;;;5037700;28;20205;-86
2022/06/27 04:29:30;;;;;;;21.00;15.17;;;17.40;99.90;;;;;;5037310;28;20170;-86
2022/06/27 04:31:56;;;;;;;21.63;14.80;;;17.50;99.90;;;;;;5036040;28;20232;-87
2022/06/27 04:34:22;;;;;;;24.60;15.00;;;17.30;99.90;;;;;;5037433;28;20174;-86
2022/06/27 04:36:48;;;;;;;20.27;14.50;;;17.30;99.90;;;;;;5037687;28;20659;-86
2022/06/27 04:39:17;;;;;;;23.13;14.70;;;17.40;99.90;;;;;;5039373;28;20173;-89
2022/06/27 04:41:44;;;;;;;22.20;14.63;;;17.40;99.90;;;;;;5040138;28;20212;-87
2022/06/27 04:44:11;;;;;;;25.83;15.43;;;17.40;99.90;;;;;;5040740;28;20585;-87
2022/06/27 04:46:38;;;;;;;25.60;15.03;;;17.30;99.90;;;;;;5039664;28;20228;-88
2022/06/27 04:49:04;;;;;;;31.43;16.17;;;17.40;99.90;;;;;;5037858;28;20170;-88
2022/06/27 04:51:31;;;;;;;26.97;14.67;;;17.40;99.90;;;;;;5041177;28;20169;-87
2022/06/27 04:53:57;;;;;;;22.47;15.60;;;17.40;99.90;;;;;;5041507;28;20194;-88
2022/06/27 04:56:23;;;;;;;21.30;15.33;;;17.30;99.90;;;;;;5042710;28;20185;-90
2022/06/27 04:58:48;;;;;;;20.77;14.87;;;17.40;99.90;;;;;;5042850;28;20174;-87
2022/06/27 05:01:14;;;;;;;25.47;14.47;;;17.40;99.90;;;;;;5044180;28;20257;-87
2022/06/27 05:03:40;;;;;;;22.50;15.87;;;17.50;99.90;;;;;;5043614;28;20190;-87
2022/06/27 05:06:05;;;;;;;24.00;15.57;;;17.40;99.90;;;;;;5043249;28;20233;-86
2022/06/27 05:08:32;;;;;;;24.57;16.97;;;17.60;99.90;;;;;;5041741;28;20174;-87
2022/06/27 05:10:58;;;;;;;24.57;16.80;;;17.50;99.90;;;;;;5042866;28;20178;-88
2022/06/27 05:13:24;;;;;;;24.87;16.33;;;17.50;99.90;;;;;;5037421;28;20220;-88
2022/06/27 05:15:50;;;;;;;21.87;16.90;;;17.50;99.90;;;;;;5038331;28;20665;-87
2022/06/27 05:18:16;;;;;;;24.37;16.70;;;17.50;99.90;;;;;;5036994;28;20178;-87
2022/06/27 05:20:44;;;;;;;24.67;17.23;;;17.60;99.90;;;;;;5035788;28;20559;-87
2022/06/27 05:23:10;;;;;;;29.47;17.67;;;17.60;99.90;;;;;;5036059;28;20201;-86
2022/06/27 05:25:36;;;;;;;24.07;16.37;;;17.60;99.90;;;;;;5036471;28;20586;-87
2022/06/27 05:28:03;;;;;;;26.27;17.07;;;17.60;99.90;;;;;;5036425;28;20170;-86
2022/06/27 05:30:30;;;;;;;25.87;16.60;;;17.60;99.90;;;;;;5036891;28;20662;-87
2022/06/27 05:32:56;;;;;;;22.43;17.33;;;17.60;99.90;;;;;;5034805;28;20194;-87
2022/06/27 05:35:22;;;;;;;25.97;17.10;;;17.60;99.90;;;;;;5035145;28;20178;-87
2022/06/27 05:37:50;;;;;;;25.37;17.27;;;17.60;99.90;;;;;;5037579;28;20566;-87
2022/06/27 05:40:17;;;;;;;26.10;18.40;;;17.60;99.90;;;;;;5036287;28;20682;-88
2022/06/27 05:42:43;;;;;;;26.60;17.60;;;17.50;99.90;;;;;;5038392;28;20619;-85
2022/06/27 05:45:10;;;;;;;25.00;17.90;;;17.50;99.90;;;;;;5039363;28;20205;-87
2022/06/27 05:47:36;;;;;;;22.83;17.37;;;17.40;99.90;;;;;;5038003;28;20197;-87
2022/06/27 05:50:05;;;;;;;23.90;17.70;;;17.50;99.90;;;;;;5037844;28;20178;-87
2022/06/27 05:52:31;;;;;;;24.77;17.23;;;17.50;99.90;;;;;;5039439;28;20208;-87
2022/06/27 05:54:59;;;;;;;26.17;18.50;;;17.50;99.90;;;;;;5037357;28;20177;-86
2022/06/27 05:57:26;;;;;;;29.30;17.70;;;17.50;99.90;;;;;;5038420;28;20181;-87
2022/06/27 05:59:55;;;;;;;24.70;18.53;;;17.60;99.90;;;;;;5038024;28;20265;-86
2022/06/27 06:02:22;;;;;;;27.03;18.47;;;17.60;99.90;;;;;;5035470;28;20214;-87
2022/06/27 06:04:48;;;;;;;26.00;19.03;;;17.70;99.90;;;;;;5034622;28;20685;-87
2022/06/27 06:07:14;;;;;;;27.23;19.00;;;17.70;99.90;;;;;;5034127;28;20170;-85
2022/06/27 06:09:41;;;;;;;26.03;18.30;;;17.60;99.90;;;;;;5034925;28;20174;-86
2022/06/27 06:12:09;;;;;;;26.83;19.37;;;17.60;99.90;;;;;;5034876;28;20198;-87
2022/06/27 06:14:36;;;;;;;31.40;19.33;;;17.70;99.90;;;;;;5035477;28;20530;-81
2022/06/27 06:17:02;;;;;;;23.87;18.90;;;17.70;99.90;;;;;;5039853;28;20177;-82
2022/06/27 06:19:28;;;;;;;28.90;19.97;;;17.80;99.90;;;;;;5040921;28;20178;-81
2022/06/27 06:21:57;;;;;;;27.17;20.10;;;17.70;99.90;;;;;;5043004;28;20201;-81
2022/06/27 06:24:24;;;;;;;28.27;20.07;;;17.70;99.90;;;;;;5041150;28;20174;-82
2022/06/27 06:26:52;;;;;;;32.57;21.43;;;17.70;99.90;;;;;;5041113;28;20205;-83
2022/06/27 06:29:18;;;;;;;28.27;20.87;;;17.70;99.90;;;;;;5039349;28;20227;-83
2022/06/27 06:31:45;;;;;;;29.50;19.73;;;17.70;99.90;;;;;;5041135;28;20201;-82
2022/06/27 06:34:12;;;;;;;28.90;20.63;;;17.80;99.90;;;;;;5036203;28;20184;-81
2022/06/27 06:36:39;;;;;;;31.27;19.97;;;17.70;99.90;;;;;;5033377;28;20178;-81
2022/06/27 06:39:06;;;;;;;27.60;20.53;;;17.70;99.90;;;;;;5033867;28;20204;-80
2022/06/27 06:41:32;;;;;;;30.70;20.17;;;17.80;99.90;;;;;;5032743;28;20202;-82
2022/06/27 06:43:59;;;;;;;27.00;20.83;;;17.80;99.90;;;;;;5033327;28;20201;-81
2022/06/27 06:46:26;;;;;;;32.90;20.77;;;17.80;99.90;;;;;;5032935;28;20178;-81
2022/06/27 06:49:05;;;;;;;27.13;20.43;;;17.90;99.90;;;;;;5032798;28;20170;-81
2022/06/27 06:51:34;;;;;;;30.53;19.83;;;17.90;99.90;;;;;;5032892;28;20169;-81
2022/06/27 06:54:01;;;;;;;29.07;20.17;;;17.90;99.90;;;;;;5033102;28;20542;-80
2022/06/27 06:56:28;;;;;;;28.03;19.23;;;17.80;99.90;;;;;;5032997;28;20206;-80
2022/06/27 06:58:54;;;;;;;27.03;19.50;;;17.70;99.90;;;;;;5032775;28;20182;-81
2022/06/27 07:01:20;;;;;;;27.97;19.10;;;17.70;99.90;;;;;;5034020;28;20211;-81
2022/06/27 07:03:48;;;;;;;26.37;19.60;;;17.70;99.90;;;;;;5036683;28;20262;-81
2022/06/27 07:06:15;;;;;;;28.30;18.67;;;17.70;99.90;;;;;;5036208;28;20182;-81
2022/06/27 07:08:41;;;;;;;30.83;19.73;;;17.80;99.90;;;;;;5037017;28;20185;-81
2022/06/27 07:11:07;;;;;;;29.33;18.73;;;17.70;99.90;;;;;;5036795;28;20185;-82
2022/06/27 07:13:33;;;;;;;25.97;18.10;;;17.90;99.90;;;;;;5036430;28;20202;-82
2022/06/27 07:15:59;;;;;;;19.50;15.97;;;17.90;99.90;;;;;;5037221;28;20645;-82
2022/06/27 07:18:25;;;;;;;23.40;17.10;;;18.00;99.90;;;;;;5037108;28;20185;-81
2022/06/27 07:20:52;;;;;;;30.70;17.73;;;18.00;99.90;;;;;;5035198;28;20209;-82
2022/06/27 07:23:21;;;;;;;25.77;16.67;;;18.00;99.90;;;;;;5035598;28;20194;-82
2022/06/27 07:25:47;;;;;;;24.80;18.07;;;18.10;99.90;;;;;;5035455;28;20181;-79
2022/06/27 07:28:12;;;;;;;27.00;18.43;;;18.00;99.90;;;;;;5032913;28;20170;-79
2022/06/27 07:30:40;;;;;;;24.90;18.33;;;18.00;99.90;;;;;;5060341;23;20217;-78
2022/06/27 07:33:07;;;;;;;27.13;18.43;;;18.20;99.90;;;;;;5073572;28;20218;-78
2022/06/27 07:35:33;;;;;;;24.63;17.67;;;18.40;99.90;;;;;;5073370;28;20252;-78
2022/06/27 07:38:00;;;;;;;24.73;18.60;;;18.30;99.90;;;;;;5072561;28;20241;-77
2022/06/27 07:40:25;;;;;;;24.33;17.00;;;18.30;99.90;;;;;;5072053;28;20257;-78
2022/06/27 07:42:53;;;;;;;27.83;17.63;;;18.30;99.90;;;;;;5072215;28;20283;-78
2022/06/27 07:45:21;;;;;;;22.17;16.87;;;18.30;99.90;;;;;;5072221;28;20180;-79
2022/06/27 07:47:47;;;;;;;23.87;17.43;;;18.40;99.90;;;;;;5078699;28;20176;-78
2022/06/27 07:50:36;;;;;;;25.50;16.20;;;18.30;99.90;;;;;;5081370;28;20165;-79
2022/06/27 07:53:12;;;;;;;22.37;16.10;;;18.50;99.90;;;;;;5074925;28;20181;-78
2022/06/27 07:55:40;;;;;;;19.93;14.97;;;18.50;99.90;;;;;;5075858;28;20686;-79
2022/06/27 07:58:07;;;;;;;20.47;15.43;;;18.50;99.90;;;;;;5077789;28;20169;-78
2022/06/27 08:00:33;;;;;;;22.97;15.30;;;18.30;99.90;;;;;;5077379;28;20675;-78
2022/06/27 08:03:36;;;;;;;17.77;13.63;;;18.30;99.90;;;;;;5075508;28;20197;-79
2022/06/27 08:05:46;;;;;;;16.97;13.57;;;18.30;99.90;;;;;;5076079;28;20171;-78
2022/06/27 08:08:11;;;;;;;21.20;14.83;;;18.40;99.90;;;;;;5072513;28;20180;-77
2022/06/27 08:10:37;;;;;;;19.93;15.90;;;18.40;99.90;;;;;;5072214;28;20272;-77
2022/06/27 08:13:03;;;;;;;22.27;15.77;;;18.30;99.90;;;;;;5071287;28;20200;-77
2022/06/27 08:15:29;;;;;;;22.53;16.10;;;18.40;99.90;;;;;;5072424;28;20556;-78
2022/06/27 08:17:58;;;;;;;20.60;16.40;;;18.20;99.90;;;;;;5072384;28;20169;-77
2022/06/27 08:20:23;;;;;;;20.57;16.37;;;18.30;99.90;;;;;;5071665;28;20259;-77
2022/06/27 08:22:51;;;;;;;19.03;15.23;;;18.30;99.90;;;;;;5071842;28;20287;-77
2022/06/27 08:25:17;;;;;;;23.80;16.30;;;18.30;99.90;;;;;;5071660;28;20169;-77
2022/06/27 08:27:46;;;;;;;19.60;15.47;;;18.20;99.90;;;;;;5072110;28;20165;-77
2022/06/27 08:30:14;;;;;;;26.00;16.57;;;18.30;99.90;;;;;;5071490;28;20215;-77
2022/06/27 08:32:41;;;;;;;23.20;16.47;;;18.50;99.90;;;;;;5071596;28;20582;-77
2022/06/27 08:35:08;;;;;;;22.73;16.83;;;18.40;99.90;;;;;;5072062;28;20184;-78
2022/06/27 08:37:34;;;;;;;22.47;16.23;;;18.30;99.90;;;;;;5072232;28;20315;-78
2022/06/27 08:40:01;;;;;;;23.10;15.73;;;18.40;99.90;;;;;;5072390;28;20184;-78
2022/06/27 08:42:29;;;;;;;19.33;15.27;;;18.40;99.90;;;;;;5071512;28;20215;-78
2022/06/27 08:44:57;;;;;;;23.73;16.10;;;18.20;99.90;;;;;;5074179;28;20204;-79
2022/06/27 08:47:23;;;;;;;21.13;15.73;;;18.40;99.90;;;;;;5070125;28;20192;-79
2022/06/27 08:49:52;;;;;;;21.87;16.77;;;18.50;99.90;;;;;;5070422;28;20525;-78
2022/06/27 08:52:19;;;;;;;20.97;16.97;;;18.70;99.90;;;;;;5070427;28;20192;-78
2022/06/27 08:54:45;;;;;;;22.97;16.53;;;18.60;99.90;;;;;;5072984;28;20172;-79
2022/06/27 08:57:11;;;;;;;19.33;15.60;;;18.70;99.90;;;;;;5075127;28;20263;-79
2022/06/27 08:59:37;;;;;;;21.07;15.47;;;18.70;99.90;;;;;;5073705;28;20215;-79
2022/06/27 09:02:03;;;;;;;26.33;16.43;;;18.80;99.90;;;;;;5072757;28;20215;-79
2022/06/27 09:04:31;;;;;;;22.37;16.57;;;19.00;99.90;;;;;;5076428;28;20595;-82
2022/06/27 09:06:57;;;;;;;24.23;17.57;;;19.20;99.90;;;;;;5079254;28;20165;-81
2022/06/27 09:09:27;;;;;;;25.13;17.40;;;19.30;99.90;;;;;;5077961;28;20176;-81
2022/06/27 09:11:54;;;;;;;22.93;17.00;;;19.30;99.90;;;;;;5078392;28;20169;-81
2022/06/27 09:14:41;;;;;;;22.63;16.75;;;19.30;99.90;;;;;;5076174;28;20178;-82
2022/06/27 09:17:14;;;;;;;25.47;16.20;;;19.10;99.90;;;;;;5081332;28;20184;-81
2022/06/27 09:19:46;;;;;;;23.63;17.00;;;19.30;99.90;;;;;;5078329;28;20528;-82
2022/06/27 09:22:14;;;;;;;23.50;16.97;;;19.20;99.90;;;;;;5077961;28;20205;-82
2022/06/27 09:25:01;;;;;;;25.40;17.15;;;19.10;99.90;;;;;;5073315;28;20214;-82
2022/06/27 09:27:36;;;;;;;22.23;15.95;;;19.00;99.90;;;;;;5072564;28;20607;-81
2022/06/27 09:30:21;;;;;;;20.90;16.40;;;19.10;99.90;;;;;;5073609;28;20278;-83
2022/06/27 09:33:09;;;;;;;23.27;15.50;;;19.10;99.90;;;;;;5074081;28;20192;-80
2022/06/27 09:35:39;;;;;;;21.17;16.40;;;19.10;99.90;;;;;;5075559;28;20177;-81
2022/06/27 09:38:07;;;;;;;20.67;15.23;;;19.00;99.90;;;;;;5073554;28;20255;-81
2022/06/27 09:40:34;;;;;;;19.75;15.75;;;19.00;99.90;;;;;;5072880;28;20177;-80
2022/06/27 09:43:01;;;;;;;17.67;14.33;;;19.10;99.90;;;;;;5073586;28;20195;-81
2022/06/27 09:45:29;;;;;;;21.05;15.02;;;19.30;99.90;;;;;;5073361;28;20164;-80
2022/06/27 09:48:04;;;;;;;19.23;14.07;;;19.30;99.90;;;;;;5072972;28;20176;-83
2022/06/27 09:50:35;;;;;;;20.88;15.10;;;19.30;99.90;;;;;;5075114;28;20651;-80
2022/06/27 09:53:02;;;;;;;25.73;16.43;;;19.00;99.90;;;;;;5076657;28;20208;-82
2022/06/27 09:55:28;;;;;;;24.03;16.33;;;18.90;99.90;;;;;;5076475;28;20540;-81
2022/06/27 09:57:55;;;;;;;22.20;15.80;;;18.90;99.90;;;;;;5078533;28;20175;-81
2022/06/27 10:00:22;;;;;;;24.73;17.38;;;19.10;99.90;;;;;;5077914;28;20172;-81
2022/06/27 10:02:49;;;;;;;27.17;17.35;;;19.10;99.90;;;;;;5076298;28;20193;-81
2022/06/27 10:05:16;;;;;;;26.03;17.63;;;19.20;99.90;;;;;;5075846;28;20207;-81
2022/06/27 10:07:51;;;;;;;25.40;17.17;;;19.20;99.90;;;;;;5075626;28;20172;-82
2022/06/27 10:10:17;;;;;;;25.85;17.83;;;19.10;99.90;;;;;;5075087;28;20184;-80
2022/06/27 10:12:57;;;;;;;23.63;16.87;;;19.10;99.90;;;;;;5075299;28;20197;-82
2022/06/27 10:15:25;;;;;;;26.77;17.27;;;19.00;99.90;;;;;;5075711;28;20164;-80
2022/06/27 10:17:53;;;;;;;28.40;17.03;;;19.00;99.90;;;;;;5077205;28;20169;-80
2022/06/27 10:20:32;;;;;;;24.00;16.10;;;19.00;99.90;;;;;;5075192;28;20173;-80
2022/06/27 10:23:03;;;;;;;25.23;16.67;;;19.20;99.90;;;;;;5076306;28;20199;-81
2022/06/27 10:25:29;;;;;;;21.97;14.40;;;19.20;99.90;;;;;;5076714;28;20310;-79
2022/06/27 10:28:10;;;;;;;22.87;15.30;;;19.10;99.90;;;;;;5076800;28;20198;-81
2022/06/27 10:30:39;;;;;;;20.07;14.77;;;19.10;99.90;;;;;;5076088;28;20180;-81
2022/06/27 10:33:25;;;;;;;24.57;14.73;;;19.30;99.90;;;;;;5076066;28;20193;-82
2022/06/27 10:36:03;;;;;;;23.73;14.67;;;19.30;99.90;;;;;;5078522;28;20194;-81
2022/06/27 10:38:33;;;;;;;22.37;14.30;;;19.30;99.90;;;;;;5083565;28;20157;-81
2022/06/27 10:41:00;;;;;;;24.77;15.13;;;19.20;99.90;;;;;;5084540;28;20200;-81
2022/06/27 10:43:46;;;;;;;23.77;14.03;;;19.40;99.90;;;;;;5082663;28;20188;-82
2022/06/27 10:46:13;;;;;;;22.53;13.90;;;19.30;99.90;;;;;;5081066;28;20195;-81
2022/06/27 10:48:57;;;;;;;26.20;13.67;;;19.10;99.90;;;;;;5080267;28;20732;-82
2022/06/27 10:51:32;;;;;;;24.60;14.63;;;19.10;99.90;;;;;;5078637;28;20252;-81
2022/06/27 10:54:06;;;;;;;19.43;12.90;;;19.10;99.90;;;;;;5082860;28;20188;-82
2022/06/27 10:56:39;;;;;;;23.10;13.97;;;19.10;99.90;;;;;;5082425;28;20180;-82
2022/06/27 10:59:14;;;;;;;23.03;14.07;;;19.20;99.90;;;;;;5081142;28;20191;-76
2022/06/27 11:02:01;;;;;;;19.67;13.10;;;19.10;99.90;;;;;;5066301;28;20195;-78
2022/06/27 11:04:32;;;;;;;23.20;12.67;;;19.20;99.90;;;;;;5042069;28;20177;-77
2022/06/27 11:07:08;;;;;;;20.00;12.60;;;19.30;99.90;;;;;;5072455;28;20172;-77
2022/06/27 11:09:38;;;;;;;23.13;12.27;;;19.20;99.90;;;;;;5072882;28;20271;-76
2022/06/27 11:12:06;;;;;;;21.20;12.63;;;19.20;99.90;;;;;;5072798;28;20188;-77
2022/06/27 11:14:48;;;;;;;18.93;12.53;;;19.10;99.90;;;;;;5071898;28;20587;-77
2022/06/27 11:17:27;;;;;;;18.50;10.93;;;19.30;99.90;;;;;;5073010;28;20172;-76
2022/06/27 11:20:12;;;;;;;16.40;10.53;;;19.10;99.90;;;;;;5052138;28;20422;-77
2022/06/27 11:22:39;;;;;;;15.13;10.43;;;19.10;99.90;;;;;;5052061;28;20201;-77
2022/06/27 11:25:05;;;;;;;16.80;10.17;;;18.90;99.90;;;;;;5052313;28;20173;-75
2022/06/27 11:27:54;;;;;;;15.10;9.53;;;19.00;99.90;;;;;;5052608;28;20200;-76
2022/06/27 11:33:26;;;;;;;14.70;8.20;;;19.00;99.90;;;;;;5053658;28;20254;-77
2022/06/27 11:35:54;;;;;;;12.63;8.83;;;19.10;99.90;;;;;;5069624;28;20172;-76
2022/06/27 11:38:43;;;;;;;11.00;8.40;;;19.00;99.90;;;;;;5072504;28;20176;-76
2022/06/27 11:41:23;;;;;;;14.23;9.57;;;19.10;99.90;;;;;;5064017;28;20208;-76
2022/06/27 11:43:49;;;;;;;15.33;9.53;;;19.00;99.90;;;;;;5072248;28;20257;-76
2022/06/27 11:46:25;;;;;;;13.47;8.70;;;18.90;99.90;;;;;;5072348;28;20590;-77
2022/06/27 11:49:04;;;;;;;14.93;9.27;;;19.00;99.90;;;;;;5071107;28;20175;-76
2022/06/27 11:51:37;;;;;;;16.97;10.50;;;19.10;99.90;;;;;;5072057;28;20176;-78
2022/06/27 11:54:13;;;;;;;13.10;9.30;;;19.10;99.90;;;;;;5073136;28;20280;-76
2022/06/27 11:56:41;;;;;;;16.90;9.77;;;19.10;99.90;;;;;;5072511;28;20200;-77
2022/06/27 11:59:09;;;;;;;12.45;9.10;;;19.10;99.90;;;;;;5071941;28;20200;-78
2022/06/27 12:01:50;;;;;;;14.80;9.67;;;19.10;99.90;;;;;;5071623;28;20201;-78
2022/06/27 12:04:17;;;;;;;16.50;9.43;;;19.10;99.90;;;;;;5071636;28;20536;-78
2022/06/27 12:06:48;;;;;;;13.55;9.43;;;19.40;99.90;;;;;;5071902;28;20169;-78
2022/06/27 12:09:14;;;;;;;14.43;9.03;;;19.40;99.90;;;;;;5071976;28;20169;-79
2022/06/27 12:12:00;;;;;;;15.97;9.30;;;19.50;99.90;;;;;;5071592;28;20177;-77
2022/06/27 12:14:28;;;;;;;13.15;9.15;;;19.70;99.90;;;;;;5070553;28;20901;-77
2022/06/27 12:16:57;;;;;;;15.50;8.02;;;19.70;99.90;;;;;;5071691;28;20215;-78
2022/06/27 12:19:24;;;;;;;15.73;8.95;;;19.70;99.90;;;;;;5073110;28;20231;-79
2022/06/27 12:21:51;;;;;;;13.57;8.63;;;19.70;99.90;;;;;;5071759;28;20686;-79
2022/06/27 12:24:17;;;;;;;13.15;8.00;;;19.70;99.90;;;;;;5072616;28;20172;-79
2022/06/27 12:26:42;;;;;;;14.52;8.32;;;19.80;99.90;;;;;;5074276;28;20251;-79
2022/06/27 12:29:08;;;;;;;13.13;8.77;;;19.80;99.90;;;;;;5072760;28;20618;-79
2022/06/27 12:31:36;;;;;;;13.35;7.95;;;19.80;99.90;;;;;;5071755;28;20188;-77
2022/06/27 12:34:03;;;;;;;13.32;7.57;;;19.90;99.90;;;;;;5071741;28;20216;-78
2022/06/27 12:36:31;;;;;;;9.45;6.40;;;20.00;99.90;;;;;;5071789;28;20169;-77
2022/06/27 12:38:58;;;;;;;11.57;6.70;;;20.00;99.90;;;;;;5071906;28;20229;-77
2022/06/27 12:41:24;;;;;;;13.05;7.18;;;19.80;99.90;;;;;;5071754;28;20207;-77
2022/06/27 12:43:51;;;;;;;13.70;6.82;;;19.80;99.90;;;;;;5072168;28;20192;-78